Time;durP1;ratioP1;P1;durP2;ratioP2;P2;SDS_P1;SDS_P2;PMS_P1;PMS_P2;Temp;Humidity;BMP_temperature;BMP_pressure;BME280_temperature;BME280_humidity;BME280_pressure;Samples;Min_cycle;Max_cycle;Signal;HPM_P1;HPM_P2
2023/12/22 00:02:23;;;;;;;;;;;;;;;;;;5135808;27;946;-62
2023/12/22 00:04:48;;;;;;;;;;;;;;;;;;5134522;27;898;-62
2023/12/22 00:07:13;;;;;;;;;;;;;;;;;;5134489;27;1105;-62
2023/12/22 00:09:39;;;;;;;;;;;;;;;;;;5134948;27;946;-61
2023/12/22 00:12:05;;;;;;;;;;;;;;;;;;5135188;27;782;-61
2023/12/22 00:14:30;;;;;;;;;;;;;;;;;;5116751;28;1898;-62
2023/12/22 00:16:55;;;;;;;;;;;;;;;;;;5134713;28;848;-62
2023/12/22 00:19:21;;;;;;;;;;;;;;;;;;5116221;28;824;-62
2023/12/22 00:21:46;;;;;;;;;;;;;;;;;;5135273;28;982;-61
2023/12/22 00:24:11;;;;;;;;;;;;;;;;;;5134935;28;812;-61
2023/12/22 00:26:36;;;;;;;;;;;;;;;;;;5134593;28;835;-62
2023/12/22 00:29:02;;;;;;;;;;;;;;;;;;5134794;28;927;-62
2023/12/22 00:31:27;;;;;;;;;;;;;;;;;;5134867;28;817;-61
2023/12/22 00:33:52;;;;;;;;;;;;;;;;;;5116410;28;1959;-62
2023/12/22 00:36:20;;;;;;;;;;;;;;;;;;5134678;28;836;-62
2023/12/22 00:38:45;;;;;;;;;;;;;;;;;;5134874;28;836;-62
2023/12/22 00:41:10;;;;;;;;;;;;;;;;;;5134378;28;899;-61
2023/12/22 00:43:36;;;;;;;;;;;;;;;;;;5134545;28;891;-61
2023/12/22 00:46:01;;;;;;;;;;;;;;;;;;5134529;28;658;-61
2023/12/22 00:48:27;;;;;;;;;;;;;;;;;;5134578;28;887;-60
2023/12/22 00:50:52;;;;;;;;;;;;;;;;;;5134215;28;1138;-61
2023/12/22 00:53:17;;;;;;;;;;;;;;;;;;5134218;28;948;-62
2023/12/22 00:55:42;;;;;;;;;;;;;;;;;;5134052;28;1897;-62
2023/12/22 00:58:08;;;;;;;;;;;;;;;;;;5134386;28;987;-62
2023/12/22 01:00:33;;;;;;;;;;;;;;;;;;5134157;28;1041;-62
2023/12/22 01:02:58;;;;;;;;;;;;;;;;;;5115350;28;1191;-61
2023/12/22 01:05:23;;;;;;;;;;;;;;;;;;5134108;28;942;-62
2023/12/22 01:07:48;;;;;;;;;;;;;;;;;;5133866;27;913;-62
2023/12/22 01:10:14;;;;;;;;;;;;;;;;;;5115412;28;927;-62
2023/12/22 01:12:39;;;;;;;;;;;;;;;;;;5115583;28;1347;-61
2023/12/22 01:15:05;;;;;;;;;;;;;;;;;;5133631;27;1894;-61
2023/12/22 01:17:30;;;;;;;;;;;;;;;;;;5134023;28;860;-61
2023/12/22 01:19:55;;;;;;;;;;;;;;;;;;5135776;27;983;-61
2023/12/22 01:22:22;;;;;;;;;;;;;;;;;;5137590;27;875;-61
2023/12/22 01:24:47;;;;;;;;;;;;;;;;;;5137784;27;911;-61
2023/12/22 01:27:13;;;;;;;;;;;;;;;;;;5137607;27;789;-61
2023/12/22 01:29:38;;;;;;;;;;;;;;;;;;5137731;27;928;-61
2023/12/22 01:32:04;;;;;;;;;;;;;;;;;;5137219;27;632;-61
2023/12/22 01:34:29;;;;;;;;;;;;;;;;;;5118813;27;1902;-62
2023/12/22 01:36:54;;;;;;;;;;;;;;;;;;5137617;27;1014;-61
2023/12/22 01:39:19;;;;;;;;;;;;;;;;;;5137041;27;1096;-61
2023/12/22 01:41:44;;;;;;;;;;;;;;;;;;5137098;27;887;-62
2023/12/22 01:44:10;;;;;;;;;;;;;;;;;;5137184;27;883;-61
2023/12/22 01:46:36;;;;;;;;;;;;;;;;;;5137276;27;899;-62
2023/12/22 01:49:01;;;;;;;;;;;;;;;;;;5137442;27;887;-61
2023/12/22 01:51:28;;;;;;;;;;;;;;;;;;5137491;27;1065;-61
2023/12/22 01:53:53;;;;;;;;;;;;;;;;;;5136922;27;1894;-62
2023/12/22 01:56:19;;;;;;;;;;;;;;;;;;5118973;27;1373;-62
2023/12/22 01:58:44;;;;;;;;;;;;;;;;;;5136991;27;918;-61
2023/12/22 02:01:09;;;;;;;;;;;;;;;;;;5136607;27;855;-61
2023/12/22 02:03:36;;;;;;;;;;;;;;;;;;5137252;27;958;-62
2023/12/22 02:06:01;;;;;;;;;;;;;;;;;;5118909;27;891;-61
2023/12/22 02:08:27;;;;;;;;;;;;;;;;;;5137164;27;906;-61
2023/12/22 02:10:53;;;;;;;;;;;;;;;;;;5137108;27;946;-61
2023/12/22 02:13:18;;;;;;;;;;;;;;;;;;5136650;27;832;-61
2023/12/22 02:15:44;;;;;;;;;;;;;;;;;;5136558;27;1948;-61
2023/12/22 02:18:16;;;;;;;;;;;;;;;;;;5137242;27;950;-61
2023/12/22 02:20:44;;;;;;;;;;;;;;;;;;5136536;27;993;-62
2023/12/22 02:23:09;;;;;;;;;;;;;;;;;;5136722;27;876;-61
2023/12/22 02:25:34;;;;;;;;;;;;;;;;;;5137229;27;955;-62
2023/12/22 02:28:20;;;;;;;;;;;;;;;;;;5118078;27;832;-61
2023/12/22 02:30:51;;;;;;;;;;;;;;;;;;5116834;27;1176;-61
2023/12/22 02:33:18;;;;;;;;;;;;;;;;;;5136422;27;848;-61
2023/12/22 02:35:44;;;;;;;;;;;;;;;;;;5136428;27;1972;-61
2023/12/22 02:38:10;;;;;;;;;;;;;;;;;;5136246;27;911;-61
2023/12/22 02:40:36;;;;;;;;;;;;;;;;;;5136359;27;827;-61
2023/12/22 02:43:05;;;;;;;;;;;;;;;;;;5136141;27;832;-61
2023/12/22 02:45:32;;;;;;;;;;;;;;;;;;5117593;27;860;-62
2023/12/22 02:47:57;;;;;;;;;;;;;;;;;;5136077;27;864;-61
2023/12/22 02:50:22;;;;;;;;;;;;;;;;;;5135866;27;836;-61
2023/12/22 02:52:47;;;;;;;;;;;;;;;;;;5117127;27;840;-61
2023/12/22 02:55:13;;;;;;;;;;;;;;;;;;5136134;27;1901;-61
2023/12/22 02:57:38;;;;;;;;;;;;;;;;;;5135828;27;809;-61
2023/12/22 03:00:04;;;;;;;;;;;;;;;;;;5136006;27;840;-61
2023/12/22 03:02:29;;;;;;;;;;;;;;;;;;5135568;27;789;-60
2023/12/22 03:04:54;;;;;;;;;;;;;;;;;;5135835;27;836;-61
2023/12/22 03:07:19;;;;;;;;;;;;;;;;;;5135959;27;925;-61
2023/12/22 03:09:45;;;;;;;;;;;;;;;;;;5136047;27;907;-61
2023/12/22 03:12:10;;;;;;;;;;;;;;;;;;5136213;27;828;-61
2023/12/22 03:14:35;;;;;;;;;;;;;;;;;;5136101;27;1910;-62
2023/12/22 03:17:01;;;;;;;;;;;;;;;;;;5136030;27;844;-61
2023/12/22 03:19:26;;;;;;;;;;;;;;;;;;5135708;27;785;-61
2023/12/22 03:21:52;;;;;;;;;;;;;;;;;;5135983;27;991;-61
2023/12/22 03:24:22;;;;;;;;;;;;;;;;;;5135303;27;899;-62
2023/12/22 03:26:47;;;;;;;;;;;;;;;;;;5116621;27;940;-60
2023/12/22 03:29:12;;;;;;;;;;;;;;;;;;5135433;27;994;-61
2023/12/22 03:31:38;;;;;;;;;;;;;;;;;;5135363;27;896;-61
2023/12/22 03:34:03;;;;;;;;;;;;;;;;;;5135538;27;1901;-61
2023/12/22 03:36:28;;;;;;;;;;;;;;;;;;5135691;27;915;-61
2023/12/22 03:38:53;;;;;;;;;;;;;;;;;;5135493;27;1174;-61
2023/12/22 03:41:19;;;;;;;;;;;;;;;;;;5134755;27;1153;-62
2023/12/22 03:43:44;;;;;;;;;;;;;;;;;;5135243;27;863;-62
2023/12/22 03:46:09;;;;;;;;;;;;;;;;;;5134936;27;896;-61
2023/12/22 03:48:34;;;;;;;;;;;;;;;;;;5135048;27;907;-61
2023/12/22 03:51:00;;;;;;;;;;;;;;;;;;5135441;27;994;-61
2023/12/22 03:53:25;;;;;;;;;;;;;;;;;;5135176;27;892;-61
2023/12/22 03:55:50;;;;;;;;;;;;;;;;;;5135199;27;1893;-61
2023/12/22 03:58:16;;;;;;;;;;;;;;;;;;5117117;27;911;-60
2023/12/22 04:00:41;;;;;;;;;;;;;;;;;;5135063;27;749;-61
2023/12/22 04:03:06;;;;;;;;;;;;;;;;;;5135177;27;836;-60
2023/12/22 04:05:31;;;;;;;;;;;;;;;;;;5134644;27;910;-61
2023/12/22 04:07:56;;;;;;;;;;;;;;;;;;5135057;27;873;-61
2023/12/22 04:10:22;;;;;;;;;;;;;;;;;;5134628;27;901;-62
2023/12/22 04:12:47;;;;;;;;;;;;;;;;;;5135293;27;832;-61
2023/12/22 04:15:13;;;;;;;;;;;;;;;;;;5134490;27;1970;-61
2023/12/22 04:17:38;;;;;;;;;;;;;;;;;;5134963;28;879;-61
2023/12/22 04:20:04;;;;;;;;;;;;;;;;;;5116495;28;1525;-61
2023/12/22 04:22:29;;;;;;;;;;;;;;;;;;5134588;27;939;-62
2023/12/22 04:24:54;;;;;;;;;;;;;;;;;;5135328;28;832;-61
2023/12/22 04:27:20;;;;;;;;;;;;;;;;;;5134530;27;982;-60
2023/12/22 04:29:45;;;;;;;;;;;;;;;;;;5134508;27;832;-60
2023/12/22 04:32:10;;;;;;;;;;;;;;;;;;5134900;27;851;-61
2023/12/22 04:34:35;;;;;;;;;;;;;;;;;;5134725;28;1901;-61
2023/12/22 04:37:01;;;;;;;;;;;;;;;;;;5134429;27;899;-61
2023/12/22 04:39:26;;;;;;;;;;;;;;;;;;5134398;27;856;-61
2023/12/22 04:41:51;;;;;;;;;;;;;;;;;;5134572;28;856;-60
2023/12/22 04:44:16;;;;;;;;;;;;;;;;;;5134251;27;931;-61
2023/12/22 04:46:42;;;;;;;;;;;;;;;;;;5116307;28;1614;-61
2023/12/22 04:49:07;;;;;;;;;;;;;;;;;;5134441;27;1018;-61
2023/12/22 04:51:32;;;;;;;;;;;;;;;;;;5115923;27;1443;-61
2023/12/22 04:53:57;;;;;;;;;;;;;;;;;;5136555;27;1893;-61
2023/12/22 04:56:23;;;;;;;;;;;;;;;;;;5138844;27;950;-61
2023/12/22 04:58:48;;;;;;;;;;;;;;;;;;5138457;27;828;-61
2023/12/22 05:01:13;;;;;;;;;;;;;;;;;;5120348;27;1469;-61
2023/12/22 05:03:39;;;;;;;;;;;;;;;;;;5138623;27;848;-61
2023/12/22 05:06:04;;;;;;;;;;;;;;;;;;5120346;27;929;-61
2023/12/22 05:08:29;;;;;;;;;;;;;;;;;;5138152;27;962;-61
2023/12/22 05:10:55;;;;;;;;;;;;;;;;;;5138986;27;844;-61
2023/12/22 05:13:20;;;;;;;;;;;;;;;;;;5138490;27;934;-61
2023/12/22 05:15:45;;;;;;;;;;;;;;;;;;5138106;27;1898;-61
2023/12/22 05:18:11;;;;;;;;;;;;;;;;;;5138561;27;797;-57
2023/12/22 05:20:36;;;;;;;;;;;;;;;;;;5138725;27;899;-58
2023/12/22 05:23:01;;;;;;;;;;;;;;;;;;5138062;27;1225;-59
2023/12/22 05:25:27;;;;;;;;;;;;;;;;;;5138031;27;1215;-58
2023/12/22 05:27:52;;;;;;;;;;;;;;;;;;5137849;27;886;-58
2023/12/22 05:30:17;;;;;;;;;;;;;;;;;;5137954;27;856;-58
2023/12/22 05:32:44;;;;;;;;;;;;;;;;;;5137924;27;1042;-59
2023/12/22 05:35:10;;;;;;;;;;;;;;;;;;5137700;27;1906;-58
2023/12/22 05:37:35;;;;;;;;;;;;;;;;;;5137715;27;871;-58
2023/12/22 05:40:00;;;;;;;;;;;;;;;;;;5137982;27;888;-58
2023/12/22 05:42:25;;;;;;;;;;;;;;;;;;5137741;27;816;-58
2023/12/22 05:44:51;;;;;;;;;;;;;;;;;;5137431;27;911;-58
2023/12/22 05:47:16;;;;;;;;;;;;;;;;;;5138033;27;851;-58
2023/12/22 05:49:42;;;;;;;;;;;;;;;;;;5115751;27;1134;-58
2023/12/22 05:52:09;;;;;;;;;;;;;;;;;;5132939;27;1209;-58
2023/12/22 05:54:34;;;;;;;;;;;;;;;;;;5114928;27;1964;-58
2023/12/22 05:57:00;;;;;;;;;;;;;;;;;;5133219;27;1194;-59
2023/12/22 05:59:27;;;;;;;;;;;;;;;;;;5132123;27;1242;-58
2023/12/22 06:01:55;;;;;;;;;;;;;;;;;;5117136;27;1550;-58
2023/12/22 06:04:21;;;;;;;;;;;;;;;;;;5137165;27;934;-58
2023/12/22 06:06:46;;;;;;;;;;;;;;;;;;5136200;27;883;-59
2023/12/22 06:09:12;;;;;;;;;;;;;;;;;;5136813;27;816;-58
2023/12/22 06:11:38;;;;;;;;;;;;;;;;;;5136907;27;833;-58
2023/12/22 06:14:04;;;;;;;;;;;;;;;;;;5136999;27;1906;-57
2023/12/22 06:16:30;;;;;;;;;;;;;;;;;;5136554;27;855;-58
2023/12/22 06:18:55;;;;;;;;;;;;;;;;;;5136841;27;999;-58
2023/12/22 06:21:20;;;;;;;;;;;;;;;;;;5137525;27;1026;-57
2023/12/22 06:23:45;;;;;;;;;;;;;;;;;;5136484;27;871;-58
2023/12/22 06:26:11;;;;;;;;;;;;;;;;;;5136384;27;954;-57
2023/12/22 06:28:37;;;;;;;;;;;;;;;;;;5136801;27;832;-57
2023/12/22 06:31:03;;;;;;;;;;;;;;;;;;5136778;27;796;-61
2023/12/22 06:33:28;;;;;;;;;;;;;;;;;;5136544;27;870;-60
2023/12/22 06:35:54;;;;;;;;;;;;;;;;;;5136712;27;1976;-61
2023/12/22 06:38:19;;;;;;;;;;;;;;;;;;5136643;27;766;-62
2023/12/22 06:40:46;;;;;;;;;;;;;;;;;;5118243;27;1602;-61
2023/12/22 06:43:11;;;;;;;;;;;;;;;;;;5136486;27;891;-61
2023/12/22 06:45:36;;;;;;;;;;;;;;;;;;5136345;27;836;-61
2023/12/22 06:48:02;;;;;;;;;;;;;;;;;;5136601;27;892;-60
2023/12/22 06:50:27;;;;;;;;;;;;;;;;;;5135976;27;899;-61
2023/12/22 06:52:52;;;;;;;;;;;;;;;;;;5136297;27;958;-60
2023/12/22 06:55:17;;;;;;;;;;;;;;;;;;5117664;27;1894;-60
2023/12/22 06:57:43;;;;;;;;;;;;;;;;;;5136096;27;899;-61
2023/12/22 07:00:09;;;;;;;;;;;;;;;;;;5136222;27;821;-61
2023/12/22 07:02:34;;;;;;;;;;;;;;;;;;5136255;27;927;-61
2023/12/22 07:05:17;;;;;;;;;;;;;;;;;;5135941;27;872;-62
2023/12/22 07:07:43;;;;;;;;;;;;;;;;;;5135941;27;1075;-61
2023/12/22 07:10:08;;;;;;;;;;;;;;;;;;5136052;27;997;-62
2023/12/22 07:12:33;;;;;;;;;;;;;;;;;;5135811;27;844;-61
2023/12/22 07:14:58;;;;;;;;;;;;;;;;;;5117604;27;1886;-62
2023/12/22 07:17:24;;;;;;;;;;;;;;;;;;5135782;27;918;-60
2023/12/22 07:19:51;;;;;;;;;;;;;;;;;;5135717;27;986;-59
2023/12/22 07:22:17;;;;;;;;;;;;;;;;;;5135956;27;915;-59
2023/12/22 07:24:42;;;;;;;;;;;;;;;;;;5117256;27;860;-60
2023/12/22 07:27:07;;;;;;;;;;;;;;;;;;5135326;27;971;-59
2023/12/22 07:29:33;;;;;;;;;;;;;;;;;;5133714;27;887;-59
2023/12/22 07:31:58;;;;;;;;;;;;;;;;;;5132736;27;758;-59
2023/12/22 07:34:23;;;;;;;;;;;;;;;;;;5116865;27;1948;-59
2023/12/22 07:36:48;;;;;;;;;;;;;;;;;;5135438;27;867;-58
2023/12/22 07:39:14;;;;;;;;;;;;;;;;;;5135298;27;828;-59
2023/12/22 07:41:39;;;;;;;;;;;;;;;;;;5116935;27;848;-59
2023/12/22 07:44:05;;;;;;;;;;;;;;;;;;5135523;27;843;-60
2023/12/22 07:46:30;;;;;;;;;;;;;;;;;;5135068;27;776;-59
2023/12/22 07:48:55;;;;;;;;;;;;;;;;;;5135355;27;843;-59
2023/12/22 07:51:21;;;;;;;;;;;;;;;;;;5135026;27;1037;-58
2023/12/22 07:53:46;;;;;;;;;;;;;;;;;;5134873;27;1009;-59
2023/12/22 07:56:11;;;;;;;;;;;;;;;;;;5135138;27;1967;-58
2023/12/22 07:58:37;;;;;;;;;;;;;;;;;;5116499;27;713;-60
2023/12/22 08:01:03;;;;;;;;;;;;;;;;;;5135280;27;875;-62
2023/12/22 08:03:28;;;;;;;;;;;;;;;;;;5135259;27;812;-62
2023/12/22 08:05:54;;;;;;;;;;;;;;;;;;5135156;27;950;-62
2023/12/22 08:08:19;;;;;;;;;;;;;;;;;;5116912;27;1207;-61
2023/12/22 08:10:45;;;;;;;;;;;;;;;;;;5134734;27;1182;-62
2023/12/22 08:13:11;;;;;;;;;;;;;;;;;;5134769;27;1002;-62
2023/12/22 08:15:36;;;;;;;;;;;;;;;;;;5134894;27;1898;-62
2023/12/22 08:18:01;;;;;;;;;;;;;;;;;;5135015;28;1143;-61
2023/12/22 08:20:27;;;;;;;;;;;;;;;;;;5135410;27;887;-62
2023/12/22 08:22:52;;;;;;;;;;;;;;;;;;5134988;28;848;-63
2023/12/22 08:25:20;;;;;;;;;;;;;;;;;;5134758;28;615;-63
2023/12/22 08:27:45;;;;;;;;;;;;;;;;;;5134675;27;912;-63
2023/12/22 08:30:11;;;;;;;;;;;;;;;;;;5139214;27;911;-63
2023/12/22 08:32:36;;;;;;;;;;;;;;;;;;5138915;27;1273;-62
2023/12/22 08:35:03;;;;;;;;;;;;;;;;;;5139074;27;1893;-63
2023/12/22 08:37:28;;;;;;;;;;;;;;;;;;5139187;27;816;-58
2023/12/22 08:39:53;;;;;;;;;;;;;;;;;;5138902;27;828;-58
2023/12/22 08:42:18;;;;;;;;;;;;;;;;;;5120406;27;1079;-59
2023/12/22 08:44:44;;;;;;;;;;;;;;;;;;5138903;27;1018;-58
2023/12/22 08:47:09;;;;;;;;;;;;;;;;;;5138765;27;832;-58
2023/12/22 08:49:34;;;;;;;;;;;;;;;;;;5138424;27;859;-58
2023/12/22 08:52:00;;;;;;;;;;;;;;;;;;5138601;27;761;-59
2023/12/22 08:54:26;;;;;;;;;;;;;;;;;;5138650;27;1894;-59
2023/12/22 08:56:52;;;;;;;;;;;;;;;;;;5138374;27;863;-58
2023/12/22 08:59:17;;;;;;;;;;;;;;;;;;5137918;27;871;-58
2023/12/22 09:01:43;;;;;;;;;;;;;;;;;;5138376;27;880;-58
2023/12/22 09:04:09;;;;;;;;;;;;;;;;;;5138615;27;952;-59
2023/12/22 09:06:34;;;;;;;;;;;;;;;;;;5138364;27;889;-59
2023/12/22 09:08:59;;;;;;;;;;;;;;;;;;5138034;27;948;-58
2023/12/22 09:11:25;;;;;;;;;;;;;;;;;;5138813;27;962;-59
2023/12/22 09:13:50;;;;;;;;;;;;;;;;;;5138130;27;868;-59
2023/12/22 09:16:20;;;;;;;;;;;;;;;;;;5137941;27;1984;-58
2023/12/22 09:18:45;;;;;;;;;;;;;;;;;;5138045;27;1026;-58
2023/12/22 09:21:10;;;;;;;;;;;;;;;;;;5137914;27;927;-59
2023/12/22 09:23:39;;;;;;;;;;;;;;;;;;5138264;27;856;-60
2023/12/22 09:26:04;;;;;;;;;;;;;;;;;;5119528;27;1180;-58
2023/12/22 09:28:30;;;;;;;;;;;;;;;;;;5137656;27;887;-58
2023/12/22 09:30:55;;;;;;;;;;;;;;;;;;5137876;27;986;-59
2023/12/22 09:33:20;;;;;;;;;;;;;;;;;;5137899;27;1184;-59
2023/12/22 09:35:45;;;;;;;;;;;;;;;;;;5137635;27;1909;-59
2023/12/22 09:38:12;;;;;;;;;;;;;;;;;;5119588;27;875;-62
2023/12/22 09:40:38;;;;;;;;;;;;;;;;;;5137016;27;848;-63
2023/12/22 09:43:05;;;;;;;;;;;;;;;;;;5138183;27;860;-63
2023/12/22 09:45:33;;;;;;;;;;;;;;;;;;5137561;27;841;-63
2023/12/22 09:47:59;;;;;;;;;;;;;;;;;;5137340;27;836;-62
2023/12/22 09:50:24;;;;;;;;;;;;;;;;;;5137410;27;863;-62
2023/12/22 09:52:49;;;;;;;;;;;;;;;;;;5137549;27;1135;-62
2023/12/22 09:55:15;;;;;;;;;;;;;;;;;;5137501;27;1874;-62
2023/12/22 09:57:41;;;;;;;;;;;;;;;;;;5137365;27;831;-62
2023/12/22 10:00:08;;;;;;;;;;;;;;;;;;5137800;27;919;-62
2023/12/22 10:02:34;;;;;;;;;;;;;;;;;;5136757;27;957;-63
2023/12/22 10:05:00;;;;;;;;;;;;;;;;;;5137447;27;793;-63
2023/12/22 10:07:26;;;;;;;;;;;;;;;;;;5137560;27;1014;-63
2023/12/22 10:09:52;;;;;;;;;;;;;;;;;;5137733;27;812;-62
2023/12/22 10:12:19;;;;;;;;;;;;;;;;;;5137513;27;856;-63
2023/12/22 10:14:44;;;;;;;;;;;;;;;;;;5137482;27;1901;-62
2023/12/22 10:17:10;;;;;;;;;;;;;;;;;;5119115;27;1266;-62
2023/12/22 10:19:35;;;;;;;;;;;;;;;;;;5137569;27;1030;-64
2023/12/22 10:22:00;;;;;;;;;;;;;;;;;;5137061;27;895;-62
2023/12/22 10:24:46;;;;;;;;;;;;;;;;;;5137580;27;868;-62
2023/12/22 10:27:12;;;;;;;;;;;;;;;;;;5137212;27;852;-63
2023/12/22 10:29:38;;;;;;;;;;;;;;;;;;5137403;27;867;-63
2023/12/22 10:32:03;;;;;;;;;;;;;;;;;;5136950;27;896;-62
2023/12/22 10:34:29;;;;;;;;;;;;;;;;;;5118285;27;1890;-63
2023/12/22 10:36:54;;;;;;;;;;;;;;;;;;5137421;27;934;-61
2023/12/22 10:39:21;;;;;;;;;;;;;;;;;;5136791;27;1046;-62
2023/12/22 10:41:46;;;;;;;;;;;;;;;;;;5136739;27;891;-61
2023/12/22 10:44:11;;;;;;;;;;;;;;;;;;5137443;27;903;-63
2023/12/22 10:46:37;;;;;;;;;;;;;;;;;;5136834;27;871;-63
2023/12/22 10:49:04;;;;;;;;;;;;;;;;;;5136498;27;982;-62
2023/12/22 10:51:32;;;;;;;;;;;;;;;;;;5135496;27;853;-62
2023/12/22 10:53:57;;;;;;;;;;;;;;;;;;5135179;27;817;-62
2023/12/22 10:56:23;;;;;;;;;;;;;;;;;;5134547;27;1975;-62
2023/12/22 10:58:48;;;;;;;;;;;;;;;;;;5134702;27;1037;-62
2023/12/22 11:01:14;;;;;;;;;;;;;;;;;;5134397;27;945;-62
2023/12/22 11:03:42;;;;;;;;;;;;;;;;;;5134851;27;1014;-61
2023/12/22 11:06:10;;;;;;;;;;;;;;;;;;5134835;27;1066;-62
2023/12/22 11:08:36;;;;;;;;;;;;;;;;;;5135946;27;812;-62
2023/12/22 11:11:04;;;;;;;;;;;;;;;;;;5135999;27;875;-62
2023/12/22 11:13:30;;;;;;;;;;;;;;;;;;5136024;27;832;-63
2023/12/22 11:15:55;;;;;;;;;;;;;;;;;;5135732;27;1978;-63
2023/12/22 11:18:21;;;;;;;;;;;;;;;;;;5136466;27;836;-62
2023/12/22 11:20:47;;;;;;;;;;;;;;;;;;5136340;27;1083;-63
2023/12/22 11:23:14;;;;;;;;;;;;;;;;;;5136215;27;899;-63
2023/12/22 11:25:40;;;;;;;;;;;;;;;;;;5135927;27;971;-63
2023/12/22 11:28:06;;;;;;;;;;;;;;;;;;5135884;27;863;-62
2023/12/22 11:30:32;;;;;;;;;;;;;;;;;;5135935;27;1088;-62
2023/12/22 11:32:58;;;;;;;;;;;;;;;;;;5135837;27;887;-63
2023/12/22 11:35:23;;;;;;;;;;;;;;;;;;5136097;27;1905;-63
2023/12/22 11:37:49;;;;;;;;;;;;;;;;;;5135496;27;919;-62
2023/12/22 11:40:14;;;;;;;;;;;;;;;;;;5117190;27;1554;-62
2023/12/22 11:42:45;;;;;;;;;;;;;;;;;;5135965;27;987;-62
2023/12/22 11:45:16;;;;;;;;;;;;;;;;;;5136000;27;828;-63
2023/12/22 11:47:42;;;;;;;;;;;;;;;;;;5135355;27;892;-64
2023/12/22 11:50:12;;;;;;;;;;;;;;;;;;5135733;27;954;-63
2023/12/22 11:52:38;;;;;;;;;;;;;;;;;;5135593;27;852;-62
2023/12/22 11:55:04;;;;;;;;;;;;;;;;;;5135314;27;1894;-62
2023/12/22 11:57:30;;;;;;;;;;;;;;;;;;5135509;27;844;-62
2023/12/22 11:59:55;;;;;;;;;;;;;;;;;;5134746;27;907;-63
2023/12/22 12:02:21;;;;;;;;;;;;;;;;;;5134828;27;816;-62
2023/12/22 12:04:47;;;;;;;;;;;;;;;;;;5135090;27;824;-62
2023/12/22 12:07:31;;;;;;;;;;;;;;;;;;5135152;27;1018;-63
2023/12/22 12:09:56;;;;;;;;;;;;;;;;;;5134810;27;907;-61
2023/12/22 12:12:22;;;;;;;;;;;;;;;;;;5135673;27;840;-62
2023/12/22 12:14:51;;;;;;;;;;;;;;;;;;5134714;27;1902;-62
2023/12/22 12:17:18;;;;;;;;;;;;;;;;;;5134906;27;924;-62
2023/12/22 12:19:44;;;;;;;;;;;;;;;;;;5135080;27;907;-63
2023/12/22 12:22:11;;;;;;;;;;;;;;;;;;5135413;28;940;-63
2023/12/22 12:24:37;;;;;;;;;;;;;;;;;;5134775;27;930;-63
2023/12/22 12:27:03;;;;;;;;;;;;;;;;;;5134969;28;903;-62
2023/12/22 12:29:28;;;;;;;;;;;;;;;;;;5134819;28;899;-62
2023/12/22 12:32:02;;;;;;;;;;;;;;;;;;5134154;27;891;-63
2023/12/22 12:34:27;;;;;;;;;;;;;;;;;;5134791;27;1898;-63
2023/12/22 12:36:54;;;;;;;;;;;;;;;;;;5134687;28;973;-63
2023/12/22 12:39:22;;;;;;;;;;;;;;;;;;5135344;28;828;-62
2023/12/22 12:41:52;;;;;;;;;;;;;;;;;;5134750;28;970;-63
2023/12/22 12:44:18;;;;;;;;;;;;;;;;;;5134692;27;919;-63
2023/12/22 12:46:43;;;;;;;;;;;;;;;;;;5134382;28;840;-61
2023/12/22 12:49:11;;;;;;;;;;;;;;;;;;5135344;28;852;-62
2023/12/22 12:51:40;;;;;;;;;;;;;;;;;;5135169;28;832;-63
2023/12/22 12:54:06;;;;;;;;;;;;;;;;;;5135208;27;897;-63
2023/12/22 12:56:41;;;;;;;;;;;;;;;;;;5135274;28;1933;-62
2023/12/22 12:59:16;;;;;;;;;;;;;;;;;;5134678;27;836;-62
2023/12/22 13:01:42;;;;;;;;;;;;;;;;;;5134915;27;804;-62
2023/12/22 13:04:08;;;;;;;;;;;;;;;;;;5134689;28;964;-62
2023/12/22 13:06:33;;;;;;;;;;;;;;;;;;5134870;28;840;-62
2023/12/22 13:08:59;;;;;;;;;;;;;;;;;;5134743;28;927;-62
2023/12/22 13:11:26;;;;;;;;;;;;;;;;;;5134315;28;839;-61
2023/12/22 13:13:52;;;;;;;;;;;;;;;;;;5133809;27;867;-62
2023/12/22 13:16:18;;;;;;;;;;;;;;;;;;5138155;27;1976;-61
2023/12/22 13:18:43;;;;;;;;;;;;;;;;;;5138433;27;803;-61
2023/12/22 13:21:09;;;;;;;;;;;;;;;;;;5138143;27;891;-61
2023/12/22 13:23:34;;;;;;;;;;;;;;;;;;5138020;27;855;-61
2023/12/22 13:25:59;;;;;;;;;;;;;;;;;;5137960;27;875;-62
2023/12/22 13:28:26;;;;;;;;;;;;;;;;;;5137422;27;827;-58
2023/12/22 13:30:51;;;;;;;;;;;;;;;;;;5137392;27;867;-58
2023/12/22 13:33:16;;;;;;;;;;;;;;;;;;5137648;27;966;-58
2023/12/22 13:35:41;;;;;;;;;;;;;;;;;;5137953;27;1893;-59
2023/12/22 13:38:07;;;;;;;;;;;;;;;;;;5137532;27;911;-58
2023/12/22 13:40:32;;;;;;;;;;;;;;;;;;5137472;27;899;-58
2023/12/22 13:42:58;;;;;;;;;;;;;;;;;;5137500;27;907;-58
2023/12/22 13:45:24;;;;;;;;;;;;;;;;;;5137502;27;824;-58
2023/12/22 13:47:50;;;;;;;;;;;;;;;;;;5119262;27;930;-58
2023/12/22 13:50:16;;;;;;;;;;;;;;;;;;5137119;27;843;-57
2023/12/22 13:52:43;;;;;;;;;;;;;;;;;;5137148;27;742;-59
2023/12/22 13:55:12;;;;;;;;;;;;;;;;;;5137690;27;1951;-58
2023/12/22 13:57:37;;;;;;;;;;;;;;;;;;5137486;27;872;-59
2023/12/22 14:00:22;;;;;;;;;;;;;;;;;;5137597;27;903;-59
2023/12/22 14:02:52;;;;;;;;;;;;;;;;;;5136964;27;1911;-59
2023/12/22 14:05:17;;;;;;;;;;;;;;;;;;5137109;27;805;-59
2023/12/22 14:07:43;;;;;;;;;;;;;;;;;;5137141;27;990;-59
2023/12/22 14:10:10;;;;;;;;;;;;;;;;;;5137226;27;867;-60
2023/12/22 14:12:37;;;;;;;;;;;;;;;;;;5119086;27;808;-58
2023/12/22 14:15:03;;;;;;;;;;;;;;;;;;5136535;27;1954;-58
2023/12/22 14:17:28;;;;;;;;;;;;;;;;;;5136572;27;962;-59
2023/12/22 14:19:53;;;;;;;;;;;;;;;;;;5118529;27;896;-58
2023/12/22 14:22:18;;;;;;;;;;;;;;;;;;5137011;27;994;-58
2023/12/22 14:24:44;;;;;;;;;;;;;;;;;;5118412;27;832;-58
2023/12/22 14:27:10;;;;;;;;;;;;;;;;;;5136078;27;824;-60
2023/12/22 14:29:40;;;;;;;;;;;;;;;;;;5136677;27;852;-59
2023/12/22 14:32:08;;;;;;;;;;;;;;;;;;5136889;27;1099;-58
2023/12/22 14:34:33;;;;;;;;;;;;;;;;;;5136454;27;1893;-59
2023/12/22 14:36:59;;;;;;;;;;;;;;;;;;5135074;27;1219;-60
2023/12/22 14:39:24;;;;;;;;;;;;;;;;;;5135245;27;1136;-59
2023/12/22 14:41:50;;;;;;;;;;;;;;;;;;5136315;27;832;-59
2023/12/22 14:44:15;;;;;;;;;;;;;;;;;;5137002;27;844;-59
2023/12/22 14:46:41;;;;;;;;;;;;;;;;;;5136952;27;908;-60
2023/12/22 14:49:06;;;;;;;;;;;;;;;;;;5136671;27;883;-59
2023/12/22 14:51:35;;;;;;;;;;;;;;;;;;5136633;27;817;-58
2023/12/22 14:54:01;;;;;;;;;;;;;;;;;;5136390;27;871;-58
2023/12/22 14:56:26;;;;;;;;;;;;;;;;;;5136415;27;1966;-58
2023/12/22 14:58:51;;;;;;;;;;;;;;;;;;5135968;27;1058;-59
2023/12/22 15:01:17;;;;;;;;;;;;;;;;;;5136266;27;1033;-59
2023/12/22 15:03:42;;;;;;;;;;;;;;;;;;5136793;27;852;-60
2023/12/22 15:06:07;;;;;;;;;;;;;;;;;;5115420;27;867;-58
2023/12/22 15:08:32;;;;;;;;;;;;;;;;;;5134804;27;875;-58
2023/12/22 15:10:58;;;;;;;;;;;;;;;;;;5134965;27;910;-60
2023/12/22 15:13:23;;;;;;;;;;;;;;;;;;5135723;27;911;-60
2023/12/22 15:15:48;;;;;;;;;;;;;;;;;;5135235;27;1897;-60
2023/12/22 15:18:14;;;;;;;;;;;;;;;;;;5135089;27;926;-59
2023/12/22 15:20:39;;;;;;;;;;;;;;;;;;5135519;27;875;-58
2023/12/22 15:23:04;;;;;;;;;;;;;;;;;;5135374;27;894;-59
2023/12/22 15:25:30;;;;;;;;;;;;;;;;;;5135212;27;819;-59
2023/12/22 15:27:55;;;;;;;;;;;;;;;;;;5135754;27;942;-60
2023/12/22 15:30:20;;;;;;;;;;;;;;;;;;5135154;27;902;-58
2023/12/22 15:32:46;;;;;;;;;;;;;;;;;;5134963;27;899;-60
2023/12/22 15:35:11;;;;;;;;;;;;;;;;;;5116704;27;1910;-59
2023/12/22 15:37:37;;;;;;;;;;;;;;;;;;5116145;28;903;-59
2023/12/22 15:40:03;;;;;;;;;;;;;;;;;;5135531;27;828;-58
2023/12/22 15:42:29;;;;;;;;;;;;;;;;;;5117209;27;825;-62
2023/12/22 15:44:54;;;;;;;;;;;;;;;;;;5135099;27;879;-62
2023/12/22 15:47:19;;;;;;;;;;;;;;;;;;5135288;27;769;-62
2023/12/22 15:49:44;;;;;;;;;;;;;;;;;;5135320;27;847;-62
2023/12/22 15:52:10;;;;;;;;;;;;;;;;;;5135394;27;907;-61
2023/12/22 15:54:36;;;;;;;;;;;;;;;;;;5135024;27;1914;-62
2023/12/22 15:57:02;;;;;;;;;;;;;;;;;;5134799;27;856;-62
2023/12/22 15:59:27;;;;;;;;;;;;;;;;;;5135149;27;856;-62
2023/12/22 16:01:53;;;;;;;;;;;;;;;;;;5134648;27;1116;-62
2023/12/22 16:04:18;;;;;;;;;;;;;;;;;;5116300;28;1333;-62
2023/12/22 16:06:43;;;;;;;;;;;;;;;;;;5134150;27;823;-62
2023/12/22 16:09:08;;;;;;;;;;;;;;;;;;5133011;27;1269;-62
2023/12/22 16:11:34;;;;;;;;;;;;;;;;;;5134666;27;962;-61
2023/12/22 16:13:59;;;;;;;;;;;;;;;;;;5134586;27;895;-61
2023/12/22 16:16:25;;;;;;;;;;;;;;;;;;5134660;27;1897;-60
2023/12/22 16:18:50;;;;;;;;;;;;;;;;;;5134336;27;911;-61
2023/12/22 16:21:15;;;;;;;;;;;;;;;;;;5115113;28;1171;-61
2023/12/22 16:23:41;;;;;;;;;;;;;;;;;;5113286;28;1368;-60
2023/12/22 16:26:07;;;;;;;;;;;;;;;;;;5131844;27;1171;-62
2023/12/22 16:28:32;;;;;;;;;;;;;;;;;;5113596;28;1140;-62
2023/12/22 16:30:58;;;;;;;;;;;;;;;;;;5132304;28;1120;-62
2023/12/22 16:33:23;;;;;;;;;;;;;;;;;;5113955;28;1223;-61
2023/12/22 16:35:48;;;;;;;;;;;;;;;;;;5131633;28;1882;-61
2023/12/22 16:38:14;;;;;;;;;;;;;;;;;;5130086;28;1203;-61
2023/12/22 16:40:39;;;;;;;;;;;;;;;;;;5130310;28;1230;-60
2023/12/22 16:43:07;;;;;;;;;;;;;;;;;;5132663;28;1191;-62
2023/12/22 16:45:32;;;;;;;;;;;;;;;;;;5132257;28;1099;-61
2023/12/22 16:47:59;;;;;;;;;;;;;;;;;;5113657;28;1323;-60
2023/12/22 16:50:24;;;;;;;;;;;;;;;;;;5134373;27;1131;-62
2023/12/22 16:52:50;;;;;;;;;;;;;;;;;;5136365;27;1151;-61
2023/12/22 16:55:17;;;;;;;;;;;;;;;;;;5135821;27;1995;-61
2023/12/22 16:57:43;;;;;;;;;;;;;;;;;;5135896;27;1250;-61
2023/12/22 17:00:09;;;;;;;;;;;;;;;;;;5135584;27;1227;-62
2023/12/22 17:02:35;;;;;;;;;;;;;;;;;;5135905;27;1155;-62
2023/12/22 17:05:01;;;;;;;;;;;;;;;;;;5138634;27;1007;-61
2023/12/22 17:07:26;;;;;;;;;;;;;;;;;;5138815;27;990;-62